Time;durP1;ratioP1;P1;durP2;ratioP2;P2;SDS_P1;SDS_P2;PMS_P1;PMS_P2;Temp;Humidity;BMP_temperature;BMP_pressure;BME280_temperature;BME280_humidity;BME280_pressure;Samples;Min_cycle;Max_cycle;Signal;HPM_P1;HPM_P2
2022/10/17 00:00:12;;;;;;;1.40;1.27;;;;;19.20;100613.00;;;;2085125;28;20593;-51
2022/10/17 00:01:12;;;;;;;0.93;0.80;;;;;19.20;100610.00;;;;2085143;28;20243;-50
2022/10/17 00:02:13;;;;;;;1.13;1.00;;;;;19.20;100616.00;;;;2082470;28;20286;-50
2022/10/17 00:03:13;;;;;;;1.27;0.93;;;;;19.20;100607.00;;;;2082529;28;20299;-52
2022/10/17 00:04:13;;;;;;;1.30;1.10;;;;;19.20;100606.00;;;;2079962;28;20330;-51
2022/10/17 00:05:14;;;;;;;1.20;1.00;;;;;19.20;100607.00;;;;2083151;28;20712;-52
2022/10/17 00:06:14;;;;;;;1.77;1.23;;;;;19.20;100614.00;;;;2080007;28;20228;-51
2022/10/17 00:07:15;;;;;;;1.10;1.00;;;;;19.20;100614.00;;;;2081769;28;20895;-50
2022/10/17 00:08:16;;;;;;;1.20;1.00;;;;;19.20;100620.00;;;;2075009;28;20792;-50
2022/10/17 00:09:16;;;;;;;1.47;0.97;;;;;19.20;100608.00;;;;2078212;28;20772;-50
2022/10/17 00:10:16;;;;;;;1.00;0.77;;;;;19.20;100607.00;;;;2086722;28;20455;-51
2022/10/17 00:11:18;;;;;;;1.10;1.00;;;;;19.20;100614.00;;;;2083051;28;20231;-51
2022/10/17 00:12:18;;;;;;;1.25;1.10;;;;;19.20;100612.00;;;;2079184;28;20697;-51
2022/10/17 00:13:19;;;;;;;1.17;1.07;;;;;19.20;100613.00;;;;2083044;28;20206;-50
2022/10/17 00:14:19;;;;;;;1.30;1.20;;;;;19.20;100609.00;;;;2082591;28;20213;-50
2022/10/17 00:15:21;;;;;;;1.20;1.10;;;;;19.20;100610.00;;;;2078422;28;20233;-51
2022/10/17 00:16:29;;;;;;;1.45;1.20;;;;;19.20;100609.00;;;;2076897;28;20560;-51
2022/10/17 00:17:30;;;;;;;1.55;1.30;;;;;19.20;100619.00;;;;2073186;28;21738;-50
2022/10/17 00:18:30;;;;;;;1.20;1.10;;;;;19.20;100616.00;;;;2061465;28;20234;-51
2022/10/17 00:19:31;;;;;;;1.20;1.10;;;;;19.20;100613.00;;;;2086945;28;20209;-52
2022/10/17 00:20:34;;;;;;;1.30;1.10;;;;;19.20;100611.00;;;;2074308;28;20225;-51
2022/10/17 00:21:34;;;;;;;1.00;0.80;;;;;19.20;100609.00;;;;2071358;28;20230;-51
2022/10/17 00:22:34;;;;;;;1.17;1.07;;;;;19.20;100606.00;;;;2081851;28;20221;-51
2022/10/17 00:23:35;;;;;;;1.20;1.10;;;;;19.20;100612.00;;;;2082016;28;20259;-51
2022/10/17 00:24:35;;;;;;;1.43;1.10;;;;;19.20;100632.00;;;;2082300;28;20233;-50
2022/10/17 00:25:36;;;;;;;1.07;0.97;;;;;19.20;100603.00;;;;2078573;28;20213;-50
2022/10/17 00:26:36;;;;;;;0.80;0.80;;;;;19.20;100604.00;;;;2086350;28;20212;-50
2022/10/17 00:27:37;;;;;;;1.20;1.10;;;;;19.20;100612.00;;;;2080958;28;20304;-51
2022/10/17 00:28:37;;;;;;;1.10;1.00;;;;;19.20;100644.00;;;;2081584;28;20221;-51
2022/10/17 00:29:38;;;;;;;1.07;0.97;;;;;19.20;100608.00;;;;2081733;28;20958;-50
2022/10/17 00:30:38;;;;;;;1.20;1.10;;;;;19.20;100603.00;;;;2082920;28;20212;-51
2022/10/17 00:31:38;;;;;;;1.00;0.90;;;;;19.20;100607.00;;;;2082095;28;20216;-51
2022/10/17 00:32:39;;;;;;;1.43;1.20;;;;;19.20;100596.00;;;;2083554;28;20209;-51
2022/10/17 00:33:39;;;;;;;1.60;1.30;;;;;19.20;100600.00;;;;2082949;28;20252;-51
2022/10/17 00:34:39;;;;;;;1.10;1.00;;;;;19.20;100603.00;;;;2079219;28;20232;-51
2022/10/17 00:35:40;;;;;;;1.83;1.30;;;;;19.20;100594.00;;;;2086610;28;20224;-51
2022/10/17 00:36:40;;;;;;;1.13;1.00;;;;;19.20;100598.00;;;;2083214;28;20236;-50
2022/10/17 00:37:40;;;;;;;0.97;0.87;;;;;19.20;100594.00;;;;2083340;28;20226;-51
2022/10/17 00:38:42;;;;;;;1.40;1.30;;;;;19.20;100596.00;;;;2078663;28;20266;-51
2022/10/17 00:39:42;;;;;;;1.17;1.08;;;;;19.20;100594.00;;;;2083083;28;20351;-51
2022/10/17 00:40:43;;;;;;;1.00;0.90;;;;;19.20;100607.00;;;;2082633;28;20630;-51
2022/10/17 00:41:43;;;;;;;1.20;1.00;;;;;19.20;100599.00;;;;2083596;28;20270;-56
2022/10/17 00:42:43;;;;;;;1.10;1.00;;;;;19.20;100596.00;;;;2081599;28;20718;-53
2022/10/17 00:43:54;;;;;;;1.70;1.10;;;;;19.20;100602.00;;;;2081752;28;20870;-53
2022/10/17 00:45:07;;;;;;;1.20;1.10;;;;;19.20;100599.00;;;;2078620;28;20221;-51
2022/10/17 00:46:07;;;;;;;1.20;1.10;;;;;19.20;100594.00;;;;2083706;28;20219;-51
2022/10/17 00:47:09;;;;;;;1.40;0.87;;;;;19.20;100615.00;;;;2083058;28;20224;-51
2022/10/17 00:48:10;;;;;;;1.20;1.10;;;;;19.20;100586.00;;;;2074291;28;20210;-51
2022/10/17 00:49:11;;;;;;;1.10;1.00;;;;;19.20;100599.00;;;;2069755;28;20667;-51
2022/10/17 00:50:11;;;;;;;1.17;1.08;;;;;19.20;100597.00;;;;2071440;28;20703;-51
2022/10/17 00:51:11;;;;;;;1.40;1.07;;;;;19.20;100594.00;;;;2075012;28;20218;-51
2022/10/17 00:52:17;;;;;;;1.07;0.97;;;;;19.20;100604.00;;;;2064895;28;20242;-51
2022/10/17 00:53:17;;;;;;;1.38;0.98;;;;;19.20;100599.00;;;;2066955;28;20237;-51
2022/10/17 00:54:20;;;;;;;1.20;1.00;;;;;19.20;100590.00;;;;2068519;28;20572;-50
2022/10/17 00:55:23;;;;;;;2.20;1.00;;;;;19.20;100591.00;;;;2077468;28;20212;-51
2022/10/17 00:56:23;;;;;;;1.38;1.10;;;;;19.20;100594.00;;;;2080255;28;20241;-51
2022/10/17 00:57:24;;;;;;;1.43;1.10;;;;;19.20;100588.00;;;;2082764;28;20217;-51
2022/10/17 00:58:24;;;;;;;1.23;1.10;;;;;19.20;100591.00;;;;2077009;28;20214;-51
2022/10/17 00:59:24;;;;;;;1.60;1.20;;;;;19.20;100587.00;;;;2072404;28;20214;-51
2022/10/17 01:00:25;;;;;;;1.30;1.00;;;;;19.20;100592.00;;;;2071363;28;20209;-51
2022/10/17 01:01:25;;;;;;;1.20;1.10;;;;;19.20;100589.00;;;;2067780;28;20714;-51
2022/10/17 01:02:25;;;;;;;1.10;1.00;;;;;19.20;100591.00;;;;2084975;28;20573;-50
2022/10/17 01:03:26;;;;;;;1.00;0.90;;;;;19.20;100590.00;;;;2078402;28;20217;-51
2022/10/17 01:04:26;;;;;;;1.30;0.90;;;;;19.20;100588.00;;;;2071976;28;20210;-51
2022/10/17 01:05:27;;;;;;;1.00;0.90;;;;;19.20;100595.00;;;;2087811;28;20209;-51
2022/10/17 01:06:27;;;;;;;1.23;1.00;;;;;19.20;100588.00;;;;2079184;28;20209;-51
2022/10/17 01:07:27;;;;;;;1.20;1.10;;;;;19.20;100587.00;;;;2070847;28;20236;-51
2022/10/17 01:08:28;;;;;;;1.10;1.00;;;;;19.20;100594.00;;;;2071662;28;20236;-51
2022/10/17 01:09:28;;;;;;;1.13;0.90;;;;;19.20;100587.00;;;;2079281;28;20217;-51
2022/10/17 01:10:31;;;;;;;1.00;0.87;;;;;19.20;100574.00;;;;2079195;28;20237;-52
2022/10/17 01:11:39;;;;;;;1.10;1.00;;;;;18.80;100590.00;;;;2087423;28;20208;-51
2022/10/17 01:12:45;;;;;;;1.40;1.30;;;;;19.20;100590.00;;;;2078184;28;20295;-52
2022/10/17 01:13:51;;;;;;;1.10;1.00;;;;;19.20;100498.00;;;;2079562;28;20857;-51
2022/10/17 01:15:16;;;;;;;1.17;1.08;;;;;19.20;100594.00;;;;2075076;28;20232;-51
2022/10/17 01:16:21;;;;;;;1.70;1.00;;;;;19.20;100587.00;;;;2082682;28;20213;-51
2022/10/17 01:17:29;;;;;;;0.90;0.80;;;;;19.20;100606.00;;;;2078751;28;20240;-51
2022/10/17 01:18:48;;;;;;;1.40;1.20;;;;;19.20;100570.00;;;;2072097;28;20675;-51
2022/10/17 01:20:14;;;;;;;1.25;1.13;;;;;19.20;100578.00;;;;2073009;28;20678;-52
2022/10/17 01:21:52;;;;;;;2.03;1.15;;;;;19.20;100588.00;;;;2075944;28;20233;-51
2022/10/17 01:23:10;;;;;;;1.15;0.90;;;;;19.20;100575.00;;;;2083540;28;20221;-51
2022/10/17 01:24:16;;;;;;;1.10;0.90;;;;;19.20;100588.00;;;;2070184;28;20313;-51
2022/10/17 01:25:34;;;;;;;1.00;0.90;;;;;19.20;100590.00;;;;2063940;28;20250;-52
2022/10/17 01:27:03;;;;;;;1.25;1.02;;;;;19.20;100576.00;;;;2072725;28;20831;-51
2022/10/17 01:28:28;;;;;;;1.00;0.77;;;;;19.20;100591.00;;;;2078402;28;20620;-51
2022/10/17 01:29:58;;;;;;;1.60;1.02;;;;;19.20;100587.00;;;;2075310;28;20209;-51
2022/10/17 01:31:12;;;;;;;1.23;1.13;;;;;19.20;100590.00;;;;2082918;28;20224;-52
2022/10/17 01:32:15;;;;;;;1.10;1.00;;;;;19.20;100591.00;;;;2077733;28;20703;-53
2022/10/17 01:33:29;;;;;;;1.00;0.82;;;;;19.20;100580.00;;;;2078460;28;20218;-51
2022/10/17 01:34:34;;;;;;;1.15;1.05;;;;;19.20;100586.00;;;;2071905;28;20264;-51
2022/10/17 01:35:38;;;;;;;1.20;1.10;;;;;19.20;100566.00;;;;2062386;28;20206;-51
2022/10/17 01:36:49;;;;;;;1.27;1.00;;;;;19.20;100558.00;;;;2063620;28;20294;-51
2022/10/17 01:38:26;;;;;;;1.20;1.10;;;;;19.20;100580.00;;;;2071391;28;20225;-51
2022/10/17 01:39:42;;;;;;;1.33;1.15;;;;;19.20;100582.00;;;;2083306;28;20212;-51
2022/10/17 01:40:48;;;;;;;1.52;1.27;;;;;19.20;100583.00;;;;2078188;28;20217;-52
2022/10/17 01:41:59;;;;;;;0.95;0.85;;;;;19.20;100590.00;;;;2077798;28;20582;-51
2022/10/17 01:43:06;;;;;;;1.20;1.10;;;;;19.20;100581.00;;;;2071399;28;20226;-51
2022/10/17 01:44:20;;;;;;;1.42;1.30;;;;;19.20;100588.00;;;;2078779;28;20213;-51
2022/10/17 01:45:26;;;;;;;1.05;0.98;;;;;19.20;100555.00;;;;2080956;28;20307;-51
2022/10/17 01:46:29;;;;;;;1.27;1.05;;;;;19.20;100592.00;;;;2065194;28;20225;-51
2022/10/17 01:47:30;;;;;;;1.10;1.00;;;;;19.20;100579.00;;;;2055853;28;20286;-51
2022/10/17 01:48:35;;;;;;;1.00;0.90;;;;;19.20;100580.00;;;;2060549;28;20215;-51
2022/10/17 01:49:36;;;;;;;1.08;0.98;;;;;19.20;100580.00;;;;2071946;28;20310;-52
2022/10/17 01:50:39;;;;;;;1.10;0.97;;;;;19.20;100560.00;;;;2067499;28;20297;-51
2022/10/17 01:51:42;;;;;;;1.05;0.90;;;;;19.20;100567.00;;;;2062655;28;20218;-51
2022/10/17 01:52:48;;;;;;;1.63;1.08;;;;;19.20;100569.00;;;;2060595;28;20203;-52
2022/10/17 01:53:53;;;;;;;1.30;1.13;;;;;19.20;100581.00;;;;2070566;28;20257;-51
2022/10/17 01:54:57;;;;;;;1.25;0.90;;;;;19.20;100576.00;;;;2069407;28;20308;-53
2022/10/17 01:55:59;;;;;;;0.93;0.88;;;;;19.20;100573.00;;;;2070366;28;20643;-52
2022/10/17 01:57:00;;;;;;;1.30;1.15;;;;;19.20;100564.00;;;;2062059;28;20222;-51
2022/10/17 01:58:07;;;;;;;1.38;1.27;;;;;19.20;100579.00;;;;2070464;28;20221;-52
2022/10/17 01:59:28;;;;;;;1.20;1.10;;;;;19.20;100566.00;;;;2069725;28;20232;-51
2022/10/17 02:00:28;;;;;;;1.70;0.90;;;;;19.20;100551.00;;;;2070899;28;20268;-53
2022/10/17 02:01:29;;;;;;;1.00;0.80;;;;;19.20;100564.00;;;;2061527;28;20607;-52
2022/10/17 02:02:29;;;;;;;1.30;1.20;;;;;19.20;100566.00;;;;2052738;28;20223;-52
2022/10/17 02:03:30;;;;;;;1.10;1.00;;;;;19.30;100572.00;;;;2062358;28;20409;-51
2022/10/17 02:04:30;;;;;;;1.20;0.90;;;;;19.30;100573.00;;;;2069904;28;20214;-53
2022/10/17 02:05:32;;;;;;;1.10;1.00;;;;;19.20;100570.00;;;;2076955;28;20725;-52
2022/10/17 02:06:36;;;;;;;1.35;1.10;;;;;19.30;100566.00;;;;2070073;28;20218;-52
2022/10/17 02:07:36;;;;;;;1.10;1.00;;;;;19.20;100567.00;;;;2070578;28;20583;-52
2022/10/17 02:08:44;;;;;;;1.43;1.33;;;;;19.30;100569.00;;;;2078792;28;20228;-51
2022/10/17 02:09:45;;;;;;;1.35;0.90;;;;;18.90;100566.00;;;;2078992;28;20427;-53
2022/10/17 02:10:49;;;;;;;1.20;1.10;;;;;19.20;100562.00;;;;2079405;28;20254;-51
2022/10/17 02:12:06;;;;;;;1.02;0.93;;;;;19.20;100565.00;;;;2072789;28;20221;-51
2022/10/17 02:13:18;;;;;;;1.10;1.00;;;;;19.20;100567.00;;;;2072054;28;20214;-51
2022/10/17 02:14:47;;;;;;;1.10;0.90;;;;;19.30;100575.00;;;;2071465;28;20301;-51
2022/10/17 02:16:11;;;;;;;1.45;0.93;;;;;19.20;100562.00;;;;2037773;29;20217;-51
2022/10/17 02:17:18;;;;;;;1.30;1.20;;;;;19.20;100561.00;;;;2077913;28;20279;-51
2022/10/17 02:18:41;;;;;;;1.10;1.00;;;;;19.20;100556.00;;;;2082075;28;20217;-51
2022/10/17 02:20:07;;;;;;;1.50;1.40;;;;;19.20;100558.00;;;;2077991;28;20225;-51
2022/10/17 02:21:14;;;;;;;1.00;0.90;;;;;19.20;100561.00;;;;2078367;28;20220;-51
2022/10/17 02:22:35;;;;;;;1.00;0.82;;;;;19.20;100551.00;;;;2075196;28;20232;-51
2022/10/17 02:23:41;;;;;;;1.10;1.00;;;;;19.20;100549.00;;;;2077285;28;20767;-51
2022/10/17 02:24:58;;;;;;;1.10;0.93;;;;;19.30;100554.00;;;;2071427;28;20214;-51
2022/10/17 02:26:16;;;;;;;1.45;1.10;;;;;19.20;100558.00;;;;2072051;28;20627;-52
2022/10/17 02:27:22;;;;;;;1.20;1.10;;;;;19.20;100548.00;;;;2078178;28;20624;-52
2022/10/17 02:28:58;;;;;;;1.40;1.30;;;;;19.20;100554.00;;;;2078057;28;20213;-51
2022/10/17 02:30:10;;;;;;;1.13;1.02;;;;;18.80;100555.00;;;;2082020;28;20244;-55
2022/10/17 02:31:15;;;;;;;1.00;0.90;;;;;19.20;100526.00;;;;2069431;28;20248;-51
2022/10/17 02:32:52;;;;;;;1.10;0.88;;;;;19.30;100543.00;;;;2069917;28;20317;-51
2022/10/17 02:33:57;;;;;;;1.25;1.15;;;;;19.20;100551.00;;;;2074108;28;20222;-51
2022/10/17 02:34:58;;;;;;;1.65;1.17;;;;;19.30;100547.00;;;;2062191;28;20245;-51
2022/10/17 02:36:01;;;;;;;1.17;1.07;;;;;19.30;100542.00;;;;2069987;28;20222;-51
2022/10/17 02:37:02;;;;;;;1.30;1.20;;;;;19.20;100543.00;;;;2069948;28;20229;-51
2022/10/17 02:38:03;;;;;;;1.27;1.17;;;;;19.20;100554.00;;;;2069812;28;20675;-51
2022/10/17 02:39:03;;;;;;;1.10;1.00;;;;;19.20;100548.00;;;;2074820;28;20220;-51
2022/10/17 02:40:04;;;;;;;1.30;1.20;;;;;19.20;100539.00;;;;2076054;28;20289;-51
2022/10/17 02:41:05;;;;;;;1.27;1.17;;;;;19.30;100541.00;;;;2067807;28;20487;-51
2022/10/17 02:42:07;;;;;;;1.73;1.00;;;;;19.30;100549.00;;;;2076186;28;20545;-51
2022/10/17 02:43:08;;;;;;;1.10;1.00;;;;;19.20;100550.00;;;;2073254;28;21159;-51
2022/10/17 02:44:08;;;;;;;1.20;0.90;;;;;19.20;100555.00;;;;2078087;28;20224;-51
2022/10/17 02:45:08;;;;;;;1.20;1.10;;;;;19.20;100551.00;;;;2069734;28;20276;-51
2022/10/17 02:46:09;;;;;;;1.07;0.97;;;;;19.30;100556.00;;;;2069485;28;20210;-51
2022/10/17 02:48:05;;;;;;;1.23;1.13;;;;;19.20;100558.00;;;;2070489;28;20357;-52
2022/10/17 02:49:22;;;;;;;1.00;0.90;;;;;19.20;100555.00;;;;2061568;28;20219;-51
2022/10/17 02:50:45;;;;;;;1.50;1.30;;;;;19.20;100567.00;;;;2030520;23;20216;-51
2022/10/17 02:52:15;;;;;;;1.00;0.90;;;;;19.20;100566.00;;;;2053858;28;20226;-49
2022/10/17 02:53:19;;;;;;;1.20;1.10;;;;;19.20;100556.00;;;;2071961;28;20210;-49
2022/10/17 02:54:26;;;;;;;1.02;0.90;;;;;19.20;100563.00;;;;2065003;28;20630;-51
2022/10/17 02:55:35;;;;;;;1.00;0.90;;;;;19.30;100567.00;;;;2055305;28;20723;-51
2022/10/17 02:56:38;;;;;;;1.30;1.20;;;;;19.20;100560.00;;;;2052375;28;20617;-51
2022/10/17 02:57:40;;;;;;;1.42;1.00;;;;;19.20;100569.00;;;;2047452;28;20228;-51
2022/10/17 02:58:41;;;;;;;1.20;1.10;;;;;19.30;100542.00;;;;2047366;28;20593;-51
2022/10/17 02:59:41;;;;;;;1.07;0.93;;;;;19.30;100555.00;;;;2045594;28;20209;-51
2022/10/17 03:00:41;;;;;;;1.13;1.00;;;;;19.20;100562.00;;;;2054386;28;20586;-50
2022/10/17 03:01:42;;;;;;;1.13;1.03;;;;;19.20;100556.00;;;;2054166;28;20212;-50
2022/10/17 03:02:47;;;;;;;1.20;1.10;;;;;19.30;100552.00;;;;2053996;28;20214;-51
2022/10/17 03:03:47;;;;;;;1.00;0.90;;;;;19.20;100550.00;;;;2066116;28;20353;-49
2022/10/17 03:04:48;;;;;;;1.77;1.20;;;;;19.20;100561.00;;;;2069994;28;20357;-51
2022/10/17 03:05:48;;;;;;;1.17;1.07;;;;;19.20;100561.00;;;;2070351;28;20280;-51
2022/10/17 03:06:48;;;;;;;1.30;1.20;;;;;19.30;100556.00;;;;2070293;28;20213;-50
2022/10/17 03:07:49;;;;;;;1.00;0.90;;;;;19.20;100553.00;;;;2069989;28;20209;-51
2022/10/17 03:08:49;;;;;;;1.00;0.77;;;;;19.30;100564.00;;;;2070695;28;20841;-50
2022/10/17 03:09:49;;;;;;;1.20;1.10;;;;;19.30;100560.00;;;;2071032;28;20202;-51
2022/10/17 03:10:50;;;;;;;1.20;1.10;;;;;19.30;100557.00;;;;2071396;28;20296;-52
2022/10/17 03:11:50;;;;;;;1.20;1.10;;;;;19.20;100557.00;;;;2069882;28;20214;-50
2022/10/17 03:12:50;;;;;;;1.07;0.97;;;;;19.20;100553.00;;;;2067700;28;20216;-51
2022/10/17 03:13:51;;;;;;;1.30;1.20;;;;;19.20;100551.00;;;;2065326;28;20218;-51
2022/10/17 03:14:51;;;;;;;1.33;1.20;;;;;19.20;100559.00;;;;2068862;28;20220;-51
2022/10/17 03:15:51;;;;;;;1.10;1.00;;;;;19.20;100562.00;;;;2070365;28;20206;-51
2022/10/17 03:16:52;;;;;;;1.37;1.27;;;;;19.30;100551.00;;;;2062462;28;20275;-50
2022/10/17 03:17:52;;;;;;;1.10;1.00;;;;;19.30;100552.00;;;;2065024;28;20215;-51
2022/10/17 03:18:52;;;;;;;1.20;1.10;;;;;19.20;100557.00;;;;2071045;28;20218;-50
2022/10/17 03:19:53;;;;;;;1.10;1.00;;;;;19.20;100551.00;;;;2070522;28;20210;-50
2022/10/17 03:20:53;;;;;;;1.87;1.50;;;;;19.30;100545.00;;;;2070640;28;20246;-51
2022/10/17 03:21:53;;;;;;;0.90;0.80;;;;;19.30;100558.00;;;;2070134;28;20240;-50
2022/10/17 03:22:54;;;;;;;1.30;1.20;;;;;19.30;100552.00;;;;2070645;28;20214;-51
2022/10/17 03:23:54;;;;;;;1.40;1.20;;;;;19.30;100561.00;;;;2070947;28;20590;-51
2022/10/17 03:24:54;;;;;;;1.27;1.00;;;;;19.30;100561.00;;;;2070693;28;20431;-51
2022/10/17 03:25:55;;;;;;;1.10;1.00;;;;;19.30;100553.00;;;;2070480;28;20269;-51
2022/10/17 03:26:55;;;;;;;1.13;1.03;;;;;19.30;100562.00;;;;2070700;28;20256;-51
2022/10/17 03:27:59;;;;;;;1.00;0.80;;;;;19.30;100571.00;;;;2071179;28;20218;-50
2022/10/17 03:28:59;;;;;;;1.38;1.20;;;;;19.30;100569.00;;;;2070015;28;20214;-50
2022/10/17 03:30:00;;;;;;;1.10;1.00;;;;;19.20;100564.00;;;;2071023;28;20241;-49
2022/10/17 03:31:06;;;;;;;1.27;1.10;;;;;19.20;100571.00;;;;2070221;28;20228;-51
2022/10/17 03:32:06;;;;;;;1.02;0.93;;;;;19.20;100562.00;;;;2070258;28;20218;-50
2022/10/17 03:33:06;;;;;;;1.10;0.90;;;;;19.30;100568.00;;;;2070628;28;20282;-51
2022/10/17 03:34:06;;;;;;;1.40;1.30;;;;;19.30;100568.00;;;;2070655;28;20225;-51
2022/10/17 03:35:07;;;;;;;1.10;1.00;;;;;19.30;100565.00;;;;2070474;28;20314;-51
2022/10/17 03:36:12;;;;;;;1.00;0.90;;;;;19.20;100569.00;;;;2070851;28;20210;-52
2022/10/17 03:37:12;;;;;;;1.20;1.10;;;;;19.30;100572.00;;;;2070120;28;20816;-52
2022/10/17 03:38:12;;;;;;;1.10;1.00;;;;;19.30;100574.00;;;;2071162;28;20214;-51
2022/10/17 03:39:13;;;;;;;1.23;1.10;;;;;19.30;100575.00;;;;2070795;28;20293;-51
2022/10/17 03:40:13;;;;;;;1.60;1.50;;;;;19.30;100572.00;;;;2070673;28;20224;-52
2022/10/17 03:41:14;;;;;;;1.00;0.90;;;;;19.30;100577.00;;;;2070457;28;20557;-51
2022/10/17 03:42:14;;;;;;;1.23;1.13;;;;;19.20;100573.00;;;;2069929;28;20219;-52
2022/10/17 03:43:14;;;;;;;1.20;1.10;;;;;19.30;100577.00;;;;2070916;28;20236;-50
2022/10/17 03:44:15;;;;;;;1.60;1.23;;;;;19.30;100579.00;;;;2070423;28;20237;-51
2022/10/17 03:45:15;;;;;;;1.20;1.00;;;;;19.30;100579.00;;;;2070666;28;20217;-50
2022/10/17 03:46:15;;;;;;;1.30;1.20;;;;;19.20;100581.00;;;;2070818;28;20228;-51
2022/10/17 03:47:16;;;;;;;1.13;1.03;;;;;19.20;100576.00;;;;2070836;28;20206;-52
2022/10/17 03:48:16;;;;;;;1.17;1.07;;;;;19.30;100575.00;;;;2070519;28;20300;-50
2022/10/17 03:49:16;;;;;;;1.10;1.00;;;;;19.20;100581.00;;;;2070565;28;20210;-50
2022/10/17 03:50:17;;;;;;;0.93;0.90;;;;;19.30;100572.00;;;;2070465;28;20277;-51
2022/10/17 03:51:17;;;;;;;1.00;0.90;;;;;19.30;100581.00;;;;2070670;28;20210;-51
2022/10/17 03:52:17;;;;;;;1.20;1.10;;;;;19.30;100576.00;;;;2063089;28;20265;-50
2022/10/17 03:53:18;;;;;;;1.30;1.20;;;;;19.30;100576.00;;;;2062537;28;20250;-51
2022/10/17 03:54:18;;;;;;;1.30;1.20;;;;;19.30;100576.00;;;;2062601;28;20218;-52
2022/10/17 03:55:18;;;;;;;1.20;1.10;;;;;19.30;100581.00;;;;2062721;28;20284;-50
2022/10/17 03:56:20;;;;;;;1.30;1.20;;;;;19.30;100580.00;;;;2062405;28;20699;-51
2022/10/17 03:57:21;;;;;;;1.63;1.33;;;;;19.20;100583.00;;;;2067132;28;20213;-51
2022/10/17 03:58:21;;;;;;;1.27;1.17;;;;;19.20;100581.00;;;;2070165;28;20697;-49
2022/10/17 03:59:21;;;;;;;1.07;0.97;;;;;19.30;100576.00;;;;2064553;28;20683;-50
2022/10/17 04:00:22;;;;;;;1.20;1.10;;;;;19.20;100586.00;;;;2065474;28;20842;-52
2022/10/17 04:01:22;;;;;;;1.00;0.90;;;;;19.30;100577.00;;;;2062007;28;20300;-52
2022/10/17 04:02:23;;;;;;;1.00;0.90;;;;;19.30;100593.00;;;;2061555;28;20276;-51
2022/10/17 04:03:23;;;;;;;1.10;1.00;;;;;19.20;100578.00;;;;2062483;28;20889;-50
2022/10/17 04:04:23;;;;;;;1.50;1.37;;;;;19.30;100574.00;;;;2062597;28;20211;-51
2022/10/17 04:05:24;;;;;;;1.10;1.00;;;;;19.20;100577.00;;;;2062015;28;20215;-51
2022/10/17 04:06:24;;;;;;;1.00;0.90;;;;;19.30;100587.00;;;;2062412;28;20203;-51
2022/10/17 04:07:25;;;;;;;1.40;1.30;;;;;19.20;100578.00;;;;2056469;28;20710;-50
2022/10/17 04:08:25;;;;;;;1.00;0.90;;;;;19.30;100577.00;;;;2062868;28;20680;-50
2022/10/17 04:09:26;;;;;;;1.30;1.10;;;;;19.30;100578.00;;;;2057381;28;20628;-51
2022/10/17 04:10:26;;;;;;;1.00;0.90;;;;;19.30;100590.00;;;;2062441;28;20218;-51
2022/10/17 04:11:26;;;;;;;1.40;1.30;;;;;19.30;100589.00;;;;2063447;28;20718;-51
2022/10/17 04:12:26;;;;;;;1.20;1.07;;;;;19.30;100599.00;;;;2070062;28;20221;-52
2022/10/17 04:13:27;;;;;;;0.83;0.83;;;;;19.30;100603.00;;;;2070492;28;20213;-52
2022/10/17 04:14:27;;;;;;;1.20;1.10;;;;;19.30;100594.00;;;;2070667;28;20210;-51
2022/10/17 04:15:28;;;;;;;1.20;1.00;;;;;19.20;100596.00;;;;2070610;28;20244;-50
2022/10/17 04:16:28;;;;;;;1.30;1.20;;;;;19.30;100590.00;;;;2068889;28;20202;-51
2022/10/17 04:17:31;;;;;;;1.20;1.10;;;;;19.30;100610.00;;;;2069844;28;20211;-52
2022/10/17 04:18:32;;;;;;;1.30;0.90;;;;;19.30;100596.00;;;;2070266;28;20214;-51
2022/10/17 04:19:32;;;;;;;1.70;1.60;;;;;19.30;100592.00;;;;2070684;28;20210;-52
2022/10/17 04:20:36;;;;;;;1.30;1.20;;;;;19.30;100594.00;;;;2069871;28;20213;-52
2022/10/17 04:21:36;;;;;;;1.30;1.10;;;;;19.20;100592.00;;;;2069576;28;20214;-51
2022/10/17 04:22:37;;;;;;;1.23;1.10;;;;;19.30;100586.00;;;;2068832;28;20261;-51
2022/10/17 04:23:37;;;;;;;1.27;1.17;;;;;19.30;100589.00;;;;2069592;28;20316;-52
2022/10/17 04:24:37;;;;;;;1.27;1.17;;;;;19.30;100592.00;;;;2069974;28;20245;-51
2022/10/17 04:25:38;;;;;;;1.20;1.10;;;;;19.30;100598.00;;;;2069057;28;20630;-50
2022/10/17 04:26:38;;;;;;;1.23;1.10;;;;;19.30;100603.00;;;;2070338;28;20214;-50
2022/10/17 04:27:38;;;;;;;1.30;1.20;;;;;19.30;100592.00;;;;2070427;28;20230;-50
2022/10/17 04:28:39;;;;;;;1.30;1.20;;;;;19.30;100594.00;;;;2070786;28;20509;-50
2022/10/17 04:29:39;;;;;;;1.50;1.30;;;;;19.30;100590.00;;;;2070600;28;20219;-51
2022/10/17 04:30:39;;;;;;;2.30;1.20;;;;;19.30;100594.00;;;;2071489;28;20218;-52
2022/10/17 04:31:40;;;;;;;1.43;1.30;;;;;19.30;100530.00;;;;2071661;28;20257;-51
2022/10/17 04:32:40;;;;;;;1.40;1.30;;;;;19.30;100509.00;;;;2071286;28;20206;-52
2022/10/17 04:33:41;;;;;;;1.60;1.50;;;;;19.30;100606.00;;;;2072168;28;20577;-50
2022/10/17 04:34:41;;;;;;;1.13;1.03;;;;;19.30;100600.00;;;;2072265;28;20593;-51
2022/10/17 04:35:41;;;;;;;1.20;1.10;;;;;19.30;100608.00;;;;2066704;28;20607;-51
2022/10/17 04:36:42;;;;;;;1.20;1.10;;;;;19.30;100600.00;;;;2069740;28;20210;-51
2022/10/17 04:37:42;;;;;;;1.20;1.10;;;;;19.30;100609.00;;;;2070464;28;20244;-51
2022/10/17 04:38:42;;;;;;;1.30;1.00;;;;;19.30;100604.00;;;;2064681;28;20210;-51
2022/10/17 04:39:43;;;;;;;1.40;1.27;;;;;19.30;100622.00;;;;2064285;28;20218;-50
2022/10/17 04:40:43;;;;;;;1.20;1.10;;;;;19.30;100603.00;;;;2064203;28;20221;-51
2022/10/17 04:41:43;;;;;;;1.40;1.10;;;;;19.30;100608.00;;;;2066417;28;20222;-51
2022/10/17 04:42:44;;;;;;;1.27;1.13;;;;;19.20;100605.00;;;;2074161;28;20257;-51
2022/10/17 04:43:44;;;;;;;1.40;1.30;;;;;19.30;100607.00;;;;2068160;28;20570;-51
2022/10/17 04:44:44;;;;;;;1.27;1.17;;;;;19.20;100607.00;;;;2069999;28;20401;-51
2022/10/17 04:45:45;;;;;;;1.20;1.00;;;;;19.30;100608.00;;;;2069183;28;20574;-51
2022/10/17 04:46:45;;;;;;;1.50;1.40;;;;;19.20;100596.00;;;;2070251;28;20253;-50
2022/10/17 04:47:45;;;;;;;1.10;0.90;;;;;19.30;100600.00;;;;2069020;28;20218;-50
2022/10/17 04:48:46;;;;;;;1.50;1.40;;;;;18.90;100598.00;;;;2069108;28;20231;-50
2022/10/17 04:49:46;;;;;;;1.30;1.00;;;;;19.20;100598.00;;;;2069436;28;20663;-51
2022/10/17 04:50:56;;;;;;;1.27;1.00;;;;;19.30;100600.00;;;;2074852;28;20325;-50
2022/10/17 04:51:56;;;;;;;1.13;1.02;;;;;19.30;100607.00;;;;2062967;28;20216;-51
2022/10/17 04:52:57;;;;;;;1.30;1.20;;;;;19.30;100608.00;;;;2076518;28;20213;-50
2022/10/17 04:53:57;;;;;;;1.07;0.97;;;;;19.30;100608.00;;;;2066736;28;20227;-50
2022/10/17 04:54:57;;;;;;;0.90;0.90;;;;;19.30;100613.00;;;;2063884;28;20223;-50
2022/10/17 04:55:58;;;;;;;1.17;1.07;;;;;19.30;100613.00;;;;2063714;28;20219;-50
2022/10/17 04:56:58;;;;;;;1.10;1.00;;;;;19.30;100613.00;;;;2064588;28;20223;-51
2022/10/17 04:57:58;;;;;;;1.20;1.07;;;;;19.30;100603.00;;;;2066606;28;20210;-51
2022/10/17 04:58:59;;;;;;;1.57;1.40;;;;;19.30;100610.00;;;;2064397;28;20238;-51
2022/10/17 04:59:59;;;;;;;1.70;1.20;;;;;19.30;100617.00;;;;2067199;28;20221;-51
2022/10/17 05:01:03;;;;;;;1.20;1.03;;;;;19.30;100619.00;;;;2063522;28;20223;-51
2022/10/17 05:02:04;;;;;;;1.60;1.50;;;;;19.30;100620.00;;;;2067865;28;20222;-49
2022/10/17 05:03:04;;;;;;;1.60;1.20;;;;;19.30;100617.00;;;;2071351;28;20202;-50
2022/10/17 05:04:04;;;;;;;1.40;1.17;;;;;19.30;100612.00;;;;2070967;28;20221;-50
2022/10/17 05:05:05;;;;;;;1.10;1.00;;;;;19.30;100612.00;;;;2071889;28;20218;-51
2022/10/17 05:06:07;;;;;;;1.50;1.40;;;;;19.30;100623.00;;;;2068358;28;20281;-50
2022/10/17 05:07:07;;;;;;;1.05;0.95;;;;;19.30;100617.00;;;;2063922;28;20469;-51
2022/10/17 05:08:08;;;;;;;1.50;1.27;;;;;19.30;100620.00;;;;2063867;28;20238;-51
2022/10/17 05:09:08;;;;;;;1.07;0.97;;;;;19.30;100618.00;;;;2063034;28;20218;-51
2022/10/17 05:10:08;;;;;;;1.00;0.90;;;;;19.30;100618.00;;;;2064078;28;20458;-50
2022/10/17 05:11:25;;;;;;;1.80;1.03;;;;;19.30;100621.00;;;;2063361;28;20249;-49
2022/10/17 05:12:26;;;;;;;1.33;1.23;;;;;19.30;100643.00;;;;2062882;28;20211;-50
2022/10/17 05:13:26;;;;;;;1.40;1.20;;;;;19.30;100610.00;;;;2063503;28;20214;-51
2022/10/17 05:14:26;;;;;;;1.60;1.50;;;;;19.30;100621.00;;;;2066029;28;20309;-50
2022/10/17 05:15:27;;;;;;;1.10;1.00;;;;;19.30;100623.00;;;;2062672;28;20282;-51